createdAt,value
2022-12-13T00:03:49.392Z,-1.79
2022-12-13T00:08:52.280Z,-1.82
2022-12-13T00:13:55.444Z,-1.84
2022-12-13T00:19:00.968Z,-1.92
2022-12-13T00:24:04.046Z,-2.10
2022-12-13T00:29:08.180Z,-2.11
2022-12-13T00:34:12.366Z,-2.07
2022-12-13T00:39:16.468Z,-2.26
2022-12-13T00:44:20.054Z,-2.29
2022-12-13T00:49:24.612Z,-2.28
2022-12-13T00:54:27.360Z,-2.33
2022-12-13T00:59:30.105Z,-2.47
2022-12-13T01:04:34.187Z,-2.49
2022-12-13T01:09:37.369Z,-2.39
2022-12-13T01:14:41.504Z,-2.34
2022-12-13T01:19:45.793Z,-2.41
2022-12-13T01:24:48.648Z,-2.48
2022-12-13T01:29:51.370Z,-2.52
2022-12-13T01:34:55.616Z,-2.51
2022-12-13T01:39:58.390Z,-2.57
2022-12-13T01:45:06.145Z,-2.73
2022-12-13T01:50:13.632Z,-2.65
2022-12-13T01:55:18.208Z,-2.63
2022-12-13T02:00:21.332Z,-2.73
2022-12-13T02:05:29.635Z,-2.85
2022-12-13T02:10:32.869Z,-2.88
2022-12-13T02:15:43.357Z,-2.98
2022-12-13T02:21:08.544Z,-3.05
2022-12-13T02:26:33.194Z,-2.97
2022-12-13T02:31:43.539Z,-2.97
2022-12-13T02:36:55.024Z,-2.99
2022-12-13T02:42:01.637Z,-3.01
2022-12-13T02:47:12.588Z,-3.07
2022-12-13T02:52:22.499Z,-3.23
2022-12-13T02:57:33.031Z,-3.16
2022-12-13T03:02:44.755Z,-3.16
2022-12-13T03:07:54.467Z,-3.22
2022-12-13T03:13:20.292Z,-3.06
2022-12-13T03:18:26.448Z,-3.14
2022-12-13T03:23:29.914Z,-3.25
2022-12-13T03:28:32.652Z,-3.38
2022-12-13T03:33:38.651Z,-3.50
2022-12-13T03:38:41.807Z,-3.41
2022-12-13T03:43:44.773Z,-3.43
2022-12-13T03:48:49.024Z,-3.37
2022-12-13T03:53:51.770Z,-3.37
2022-12-13T03:58:54.481Z,-3.46
2022-12-13T04:03:58.518Z,-3.45
2022-12-13T04:09:01.715Z,-3.31
2022-12-13T04:14:04.534Z,-3.27
2022-12-13T04:19:08.652Z,-3.46
2022-12-13T04:24:11.600Z,-3.39
2022-12-13T04:29:14.514Z,-3.35
2022-12-13T04:34:18.570Z,-3.44
2022-12-13T04:39:21.982Z,-3.56
2022-12-13T04:44:28.957Z,-3.64
2022-12-13T04:49:35.580Z,-3.62
2022-12-13T04:54:38.590Z,-3.67
2022-12-13T04:59:42.846Z,-3.82
2022-12-13T05:04:47.529Z,-3.92
2022-12-13T05:09:57.026Z,-3.81
2022-12-13T05:14:59.767Z,-3.62
2022-12-13T05:20:04.077Z,-3.59
2022-12-13T05:25:08.120Z,-3.53
2022-12-13T05:30:11.966Z,-3.66
2022-12-13T05:35:22.777Z,-3.77
2022-12-13T05:40:27.843Z,-3.96
2022-12-13T05:45:30.833Z,-4.11
2022-12-13T05:50:34.947Z,-4.21
2022-12-13T05:55:38.351Z,-4.32
2022-12-13T06:00:41.059Z,-4.24
2022-12-13T06:05:45.172Z,-4.34
2022-12-13T06:10:55.390Z,-4.18
2022-12-13T06:16:22.952Z,-4.10
2022-12-13T06:21:29.027Z,-4.02
2022-12-13T06:26:34.820Z,-3.98
2022-12-13T06:31:37.703Z,-4.17
2022-12-13T06:36:41.766Z,-4.48
2022-12-13T06:41:44.500Z,-4.56
2022-12-13T06:46:47.203Z,-4.61
2022-12-13T06:51:51.554Z,-4.62
2022-12-13T06:56:54.255Z,-4.72
2022-12-13T07:02:03.221Z,-4.49
2022-12-13T07:07:08.109Z,-4.27
2022-12-13T07:12:11.364Z,-4.18
2022-12-13T07:17:32.731Z,-4.19
2022-12-13T07:22:46.646Z,-4.27
2022-12-13T07:28:01.085Z,-4.38
2022-12-13T07:33:05.340Z,-4.23
2022-12-13T07:38:11.037Z,-4.30
2022-12-13T07:43:15.911Z,-4.22
2022-12-13T07:48:19.193Z,-4.20
2022-12-13T07:53:23.352Z,-4.23
2022-12-13T07:58:26.085Z,-4.33
2022-12-13T08:03:29.697Z,-4.31
2022-12-13T08:08:34.333Z,-4.09
2022-12-13T08:13:37.571Z,-4.08
2022-12-13T08:18:40.786Z,-4.16
2022-12-13T08:23:44.921Z,-4.02
2022-12-13T08:28:47.696Z,-4.09
2022-12-13T08:33:50.463Z,-3.99
2022-12-13T08:38:56.074Z,-3.83
2022-12-13T08:43:58.865Z,-3.71
2022-12-13T08:49:01.667Z,-3.64
2022-12-13T08:54:11.204Z,-3.59
2022-12-13T08:59:15.819Z,-3.55
2022-12-13T09:04:18.994Z,-3.50
2022-12-13T09:09:37.200Z,-3.53
2022-12-13T09:14:45.428Z,-3.69
2022-12-13T09:19:49.345Z,-3.40
2022-12-13T09:24:53.697Z,-3.36
2022-12-13T09:30:07.748Z,-3.22
2022-12-13T09:35:10.734Z,-3.21
2022-12-13T09:40:26.357Z,-3.05
2022-12-13T09:45:32.053Z,-2.91
2022-12-13T09:50:37.035Z,-2.91
2022-12-13T09:55:45.887Z,-2.70
2022-12-13T10:00:50.705Z,-2.68
2022-12-13T10:05:59.940Z,-2.67
2022-12-13T10:11:04.358Z,-2.51
2022-12-13T10:16:10.780Z,-2.35
2022-12-13T10:21:16.487Z,-2.23
2022-12-13T10:26:24.139Z,-2.04
2022-12-13T10:31:27.611Z,-1.92
2022-12-13T10:36:32.625Z,-1.86
2022-12-13T10:41:38.358Z,-1.73
2022-12-13T10:46:42.392Z,-1.66
2022-12-13T10:51:45.740Z,-1.45
2022-12-13T10:56:51.439Z,-1.27
2022-12-13T11:01:54.903Z,-1.10
2022-12-13T11:06:58.891Z,-1.05
2022-12-13T11:12:04.906Z,-0.82
2022-12-13T11:17:09.925Z,-0.84
2022-12-13T11:22:21.333Z,-0.71
2022-12-13T11:27:46.310Z,-0.65
2022-12-13T11:33:11.742Z,-0.35
2022-12-13T11:38:26.562Z,-0.62
2022-12-13T11:43:34.551Z,-0.73
2022-12-13T11:48:44.406Z,-0.57
2022-12-13T11:53:54.861Z,-1.03
2022-12-13T11:59:09.528Z,-1.25
2022-12-13T12:04:20.371Z,-1.41
2022-12-13T12:09:25.326Z,-1.24
2022-12-13T12:14:36.872Z,-0.99
2022-12-13T12:19:41.535Z,-0.70
2022-12-13T12:24:54.742Z,-0.33
2022-12-13T12:30:22.955Z,-0.43
2022-12-13T12:35:51.902Z,-0.62
2022-12-13T12:41:17.319Z,-0.75
2022-12-13T12:46:58.905Z,-0.55
2022-12-13T12:52:05.585Z,-0.22
2022-12-13T12:57:26.718Z,-0.03
2022-12-13T13:02:34.954Z,-0.07
2022-12-13T13:07:40.372Z,0.18
2022-12-13T13:12:44.588Z,0.38
2022-12-13T13:17:48.776Z,0.43
2022-12-13T13:23:10.368Z,0.21
2022-12-13T13:28:17.218Z,0.21
2022-12-13T13:33:46.570Z,-0.43
2022-12-13T13:38:51.505Z,-0.80
2022-12-13T13:43:54.573Z,-1.02
2022-12-13T13:49:00.837Z,-1.09
2022-12-13T13:54:29.370Z,-0.75
2022-12-13T14:00:07.844Z,-0.68
2022-12-13T14:05:32.720Z,-0.78
2022-12-13T14:10:56.766Z,-0.73
2022-12-13T14:16:30.268Z,-0.90
2022-12-13T14:21:41.079Z,-1.08
2022-12-13T14:27:08.104Z,-1.02
2022-12-13T14:32:26.745Z,-1.12
2022-12-13T14:37:32.889Z,-1.34
2022-12-13T14:42:35.860Z,-1.64
2022-12-13T14:47:41.183Z,-1.84
2022-12-13T14:52:45.612Z,-1.98
2022-12-13T14:57:54.021Z,-2.09
2022-12-13T15:02:59.815Z,-2.15
2022-12-13T15:08:11.498Z,-2.23
2022-12-13T15:13:25.287Z,-2.37
2022-12-13T15:18:33.101Z,-2.47
2022-12-13T15:23:49.117Z,-2.47
2022-12-13T15:28:58.831Z,-2.51
2022-12-13T15:34:28.315Z,-2.50
2022-12-13T15:39:38.971Z,-2.58
2022-12-13T15:44:48.070Z,-2.68
2022-12-13T15:49:52.716Z,-2.71
2022-12-13T15:54:59.257Z,-2.82
2022-12-13T16:00:29.691Z,-2.87
2022-12-13T16:05:36.840Z,-3.02
2022-12-13T16:10:41.084Z,-3.09
2022-12-13T16:15:50.029Z,-3.08
2022-12-13T16:20:52.815Z,-3.16
2022-12-13T16:25:57.034Z,-3.20
2022-12-13T16:31:06.061Z,-3.22
2022-12-13T16:36:10.122Z,-3.35
2022-12-13T16:41:15.723Z,-3.29
2022-12-13T16:47:13.038Z,-3.34
2022-12-13T16:51:46.482Z,-3.47
2022-12-13T16:56:53.768Z,-3.52
2022-12-13T17:01:56.703Z,-3.56
2022-12-13T17:06:59.525Z,-3.75
2022-12-13T17:12:03.719Z,-3.69
2022-12-13T17:17:06.906Z,-3.61
2022-12-13T17:22:10.277Z,-3.83
2022-12-13T17:27:15.763Z,-3.98
2022-12-13T17:32:18.730Z,-3.95
2022-12-13T17:37:21.507Z,-3.95
2022-12-13T17:42:25.814Z,-3.94
2022-12-13T17:47:29.715Z,-4.04
2022-12-13T17:52:32.625Z,-4.05
2022-12-13T17:57:37.232Z,-4.04
2022-12-13T18:02:40.520Z,-4.18
2022-12-13T18:07:43.512Z,-4.47
2022-12-13T18:12:54.759Z,-4.69
2022-12-13T18:18:13.736Z,-4.71
2022-12-13T18:23:16.615Z,-4.84
2022-12-13T18:28:20.844Z,-4.78
2022-12-13T18:33:23.950Z,-4.72
2022-12-13T18:38:32.940Z,-4.73
2022-12-13T18:43:40.322Z,-4.61
2022-12-13T18:48:43.346Z,-4.63
2022-12-13T18:53:47.094Z,-4.72
2022-12-13T18:58:52.365Z,-4.84
2022-12-13T19:03:55.505Z,-4.88
2022-12-13T19:08:59.237Z,-4.89
2022-12-13T19:14:03.282Z,-4.75
2022-12-13T19:19:06.883Z,-4.57
2022-12-13T19:24:13.867Z,-4.48
2022-12-13T19:29:18.747Z,-4.69
2022-12-13T19:34:21.624Z,-4.88
2022-12-13T19:39:25.036Z,-4.98
2022-12-13T19:44:29.916Z,-4.93
2022-12-13T19:49:32.646Z,-4.93
2022-12-13T19:54:35.403Z,-5.09
2022-12-13T19:59:39.467Z,-5.18
2022-12-13T20:04:44.499Z,-5.22
2022-12-13T20:09:47.274Z,-5.18
2022-12-13T20:14:51.415Z,-5.07
2022-12-13T20:19:54.275Z,-4.85
2022-12-13T20:24:57.191Z,-4.96
2022-12-13T20:30:01.364Z,-5.37
2022-12-13T20:35:04.282Z,-5.45
2022-12-13T20:40:07.803Z,-5.50
2022-12-13T20:45:12.719Z,-5.58
2022-12-13T20:50:15.664Z,-5.48
2022-12-13T20:55:21.132Z,-5.47
2022-12-13T21:00:44.673Z,-5.43
2022-12-13T21:05:47.567Z,-5.34
2022-12-13T21:10:50.285Z,-5.29
2022-12-13T21:15:54.398Z,-5.21
2022-12-13T21:20:57.189Z,-5.27
2022-12-13T21:25:59.948Z,-5.30
2022-12-13T21:31:06.759Z,-5.27
2022-12-13T21:36:11.695Z,-5.29
2022-12-13T21:41:15.033Z,-5.27
2022-12-13T21:46:20.222Z,-5.21
2022-12-13T21:51:24.305Z,-5.23
2022-12-13T21:56:47.115Z,-5.21
2022-12-13T22:02:10.657Z,-5.12
2022-12-13T22:07:15.148Z,-4.98
2022-12-13T22:12:20.597Z,-4.95
2022-12-13T22:17:33.012Z,-4.98
2022-12-13T22:22:39.656Z,-4.86
2022-12-13T22:27:42.399Z,-4.74
2022-12-13T22:32:46.604Z,-4.63
2022-12-13T22:37:49.992Z,-4.55
2022-12-13T22:42:52.726Z,-4.50
2022-12-13T22:47:56.923Z,-4.68
2022-12-13T22:52:59.611Z,-4.70
2022-12-13T22:58:02.316Z,-4.45
2022-12-13T23:03:06.690Z,-4.50
2022-12-13T23:08:09.467Z,-4.32
2022-12-13T23:13:14.057Z,-4.23
2022-12-13T23:18:18.133Z,-4.31
2022-12-13T23:23:21.095Z,-4.41
2022-12-13T23:28:24.025Z,-4.54
2022-12-13T23:33:28.357Z,-4.30
2022-12-13T23:38:31.102Z,-4.09
2022-12-13T23:43:34.177Z,-4.30
2022-12-13T23:48:39.524Z,-4.37
2022-12-13T23:53:42.742Z,-4.46
2022-12-13T23:58:47.192Z,-4.36
